Time;durP1;ratioP1;P1;durP2;ratioP2;P2;SDS_P1;SDS_P2;PMS_P1;PMS_P2;Temp;Humidity;BMP_temperature;BMP_pressure;BME280_temperature;BME280_humidity;BME280_pressure;Samples;Min_cycle;Max_cycle;Signal;HPM_P1;HPM_P2
2022/08/06 00:01:55;;;;;;;3.00;2.80;;;19.30;99.90;;;;;;5081806;28;20447;-80
2022/08/06 00:04:23;;;;;;;2.73;2.13;;;19.20;99.90;;;;;;5081552;28;20491;-80
2022/08/06 00:06:49;;;;;;;2.30;2.20;;;19.20;99.90;;;;;;5082454;28;20800;-81
2022/08/06 00:09:16;;;;;;;2.30;2.20;;;19.20;99.90;;;;;;5082482;28;20501;-81
2022/08/06 00:11:44;;;;;;;2.63;2.43;;;19.20;99.90;;;;;;5082783;28;20447;-80
2022/08/06 00:14:11;;;;;;;3.23;2.30;;;19.20;99.90;;;;;;5080899;28;20565;-82
2022/08/06 00:16:38;;;;;;;2.70;2.50;;;19.20;99.90;;;;;;5080102;28;20451;-81
2022/08/06 00:19:05;;;;;;;2.80;2.60;;;19.20;99.90;;;;;;5081458;28;20453;-81
2022/08/06 00:21:32;;;;;;;3.23;2.77;;;19.30;99.90;;;;;;5080197;28;20539;-81
2022/08/06 00:23:59;;;;;;;2.60;2.40;;;19.40;99.90;;;;;;5080675;28;20456;-82
2022/08/06 00:26:26;;;;;;;2.40;2.30;;;19.50;99.90;;;;;;5082424;28;20456;-80
2022/08/06 00:28:54;;;;;;;2.40;2.20;;;19.60;99.90;;;;;;5085889;28;20449;-81
2022/08/06 00:31:21;;;;;;;2.77;2.57;;;19.60;99.90;;;;;;5080193;28;20458;-81
2022/08/06 00:33:47;;;;;;;2.60;2.40;;;19.60;99.90;;;;;;5079337;28;20447;-81
2022/08/06 00:36:14;;;;;;;3.23;2.90;;;19.60;99.90;;;;;;5078821;28;20467;-81
2022/08/06 00:38:41;;;;;;;3.37;2.27;;;19.50;99.90;;;;;;5080646;28;20447;-81
2022/08/06 00:41:08;;;;;;;2.63;2.43;;;19.60;99.80;;;;;;5079110;28;20455;-81
2022/08/06 00:43:35;;;;;;;6.57;3.17;;;19.40;99.70;;;;;;5078758;28;20440;-81
2022/08/06 00:46:03;;;;;;;2.47;2.37;;;19.40;99.90;;;;;;5078747;28;20469;-81
2022/08/06 00:48:30;;;;;;;3.60;2.03;;;19.40;99.50;;;;;;5079405;28;20447;-81
2022/08/06 00:50:56;;;;;;;4.37;2.97;;;19.40;99.50;;;;;;5078940;28;20569;-81
2022/08/06 00:53:23;;;;;;;2.10;2.00;;;19.30;99.60;;;;;;5079640;28;20448;-81
2022/08/06 00:55:50;;;;;;;2.90;2.70;;;19.40;99.20;;;;;;5080209;28;20471;-81
2022/08/06 00:58:17;;;;;;;4.57;2.50;;;19.30;98.80;;;;;;5078657;28;20447;-81
2022/08/06 01:00:44;;;;;;;2.97;2.47;;;19.30;98.60;;;;;;5079571;28;20463;-81
2022/08/06 01:03:16;;;;;;;2.63;2.50;;;19.30;98.80;;;;;;5079013;28;20459;-81
2022/08/06 01:05:43;;;;;;;2.40;2.30;;;19.30;98.60;;;;;;5077507;28;20490;-81
2022/08/06 01:08:09;;;;;;;1.80;1.70;;;19.20;98.30;;;;;;5079266;28;20455;-81
2022/08/06 01:10:36;;;;;;;2.37;2.17;;;19.20;98.40;;;;;;5078496;28;20490;-81
2022/08/06 01:13:03;;;;;;;2.53;2.10;;;19.20;98.10;;;;;;5079465;28;20440;-81
2022/08/06 01:15:31;;;;;;;3.63;2.17;;;19.20;97.80;;;;;;5078473;28;20467;-81
2022/08/06 01:18:02;;;;;;;2.87;2.67;;;19.20;97.70;;;;;;5083035;28;20818;-80
2022/08/06 01:20:44;;;;;;;2.70;2.50;;;19.10;97.60;;;;;;5079877;28;20451;-81
2022/08/06 01:23:25;;;;;;;2.23;2.13;;;19.10;97.80;;;;;;5079371;28;20462;-81
2022/08/06 01:26:23;;;;;;;2.20;2.10;;;19.20;97.80;;;;;;5078794;28;20474;-81
2022/08/06 01:28:57;;;;;;;1.70;1.60;;;19.10;97.30;;;;;;5079818;28;20476;-80
2022/08/06 01:31:31;;;;;;;2.47;2.37;;;19.10;97.30;;;;;;5079838;28;20483;-80
2022/08/06 01:34:09;;;;;;;5.20;2.30;;;19.10;97.20;;;;;;5077864;28;20450;-80
2022/08/06 01:36:41;;;;;;;2.57;1.93;;;19.10;97.00;;;;;;5078310;28;20478;-80
2022/08/06 01:39:11;;;;;;;1.93;1.83;;;19.20;97.00;;;;;;5078155;28;20462;-80
2022/08/06 01:41:42;;;;;;;2.47;2.13;;;19.10;96.60;;;;;;5078440;28;20448;-80
2022/08/06 01:44:13;;;;;;;2.40;2.20;;;19.10;96.60;;;;;;5078326;28;20489;-80
2022/08/06 01:46:44;;;;;;;2.17;2.07;;;19.10;96.80;;;;;;5078651;28;20451;-80
2022/08/06 01:49:12;;;;;;;2.20;2.07;;;19.20;97.00;;;;;;5077913;28;20479;-80
2022/08/06 01:51:41;;;;;;;2.07;1.97;;;19.20;96.80;;;;;;5077916;28;20485;-80
2022/08/06 01:55:00;;;;;;;2.33;2.00;;;19.20;96.70;;;;;;5077989;28;20518;-80
2022/08/06 01:57:30;;;;;;;3.83;2.40;;;19.30;96.50;;;;;;5061826;28;20476;-80
2022/08/06 01:59:59;;;;;;;2.00;1.90;;;19.30;96.20;;;;;;5078866;28;20439;-80
2022/08/06 02:02:29;;;;;;;2.30;2.20;;;19.10;96.30;;;;;;5079088;28;20447;-80
2022/08/06 05:25:35;;;;;;;2.93;2.70;;;18.40;99.60;;;;;;5007506;28;20474;-86
2022/08/06 05:28:04;;;;;;;3.40;3.10;;;18.40;99.60;;;;;;4936210;28;20469;-85
2022/08/06 05:30:31;;;;;;;3.97;2.80;;;18.30;99.60;;;;;;5025827;28;20468;-86
2022/08/06 05:32:58;;;;;;;3.83;2.47;;;18.20;99.90;;;;;;5091767;28;20938;-85
2022/08/06 05:35:26;;;;;;;2.90;2.70;;;18.20;99.90;;;;;;5096595;28;20485;-85
2022/08/06 05:37:52;;;;;;;3.27;3.07;;;18.30;99.90;;;;;;5096732;28;20453;-87
2022/08/06 05:40:19;;;;;;;2.90;2.70;;;18.10;99.80;;;;;;5096376;28;20465;-85
2022/08/06 05:42:46;;;;;;;3.27;2.67;;;18.10;99.90;;;;;;5097652;28;20454;-87
2022/08/06 05:45:19;;;;;;;2.67;2.43;;;18.10;99.90;;;;;;5097077;28;20500;-86
2022/08/06 05:47:47;;;;;;;2.60;2.40;;;18.10;99.90;;;;;;5097543;28;20445;-86
2022/08/06 05:50:20;;;;;;;2.63;2.23;;;18.20;99.90;;;;;;5096929;28;20493;-89
2022/08/06 05:52:52;;;;;;;2.70;2.50;;;18.30;99.90;;;;;;5098354;28;20460;-85
2022/08/06 05:55:23;;;;;;;4.40;2.57;;;18.30;99.90;;;;;;5101301;28;20469;-88
2022/08/06 05:57:53;;;;;;;3.60;3.20;;;18.20;99.90;;;;;;5101720;28;20967;-86
2022/08/06 06:00:24;;;;;;;2.70;2.47;;;18.20;99.90;;;;;;5101862;28;20452;-86
2022/08/06 06:02:54;;;;;;;3.03;2.70;;;18.30;99.90;;;;;;5102061;28;20462;-87
2022/08/06 06:05:22;;;;;;;3.43;3.33;;;18.40;99.90;;;;;;5102206;28;20470;-85
2022/08/06 06:07:50;;;;;;;3.10;2.80;;;18.40;99.90;;;;;;5101331;28;20477;-88
2022/08/06 06:10:18;;;;;;;3.00;2.70;;;18.50;99.90;;;;;;5101367;28;20434;-85
2022/08/06 06:12:45;;;;;;;3.90;2.80;;;18.60;99.90;;;;;;5103477;28;20467;-85
2022/08/06 06:15:14;;;;;;;3.20;2.73;;;18.60;99.90;;;;;;5104337;28;20474;-86
2022/08/06 06:17:53;;;;;;;3.13;2.93;;;18.60;99.90;;;;;;5104370;28;20459;-85
2022/08/06 06:20:35;;;;;;;3.00;2.80;;;18.70;99.90;;;;;;5102811;28;20494;-85
2022/08/06 06:23:07;;;;;;;2.90;2.70;;;18.80;99.90;;;;;;5083147;28;20435;-86
2022/08/06 06:25:41;;;;;;;2.93;2.63;;;18.80;99.90;;;;;;5083503;28;20473;-86
2022/08/06 06:28:20;;;;;;;3.40;3.10;;;18.80;99.90;;;;;;5099221;28;20454;-85
2022/08/06 06:30:54;;;;;;;2.70;2.60;;;18.60;99.90;;;;;;5101421;28;20473;-84
2022/08/06 06:33:29;;;;;;;3.47;3.00;;;18.30;99.90;;;;;;5103671;28;20425;-84
2022/08/06 06:35:58;;;;;;;2.83;2.63;;;18.30;99.90;;;;;;5103612;28;20473;-86
2022/08/06 06:38:39;;;;;;;3.33;3.10;;;18.40;99.90;;;;;;5099752;28;20442;-85
2022/08/06 06:41:13;;;;;;;4.00;3.50;;;18.40;99.90;;;;;;5100280;28;20437;-85
2022/08/06 06:43:45;;;;;;;3.70;3.50;;;18.50;99.90;;;;;;5098752;28;20506;-86
2022/08/06 06:46:20;;;;;;;3.63;3.37;;;18.70;99.90;;;;;;5096814;28;20500;-86
2022/08/06 06:48:52;;;;;;;3.23;3.03;;;18.60;99.90;;;;;;5096449;28;20457;-85
2022/08/06 06:51:25;;;;;;;3.23;3.03;;;18.50;99.90;;;;;;5096080;28;20994;-85
2022/08/06 06:53:54;;;;;;;5.40;3.60;;;18.40;99.90;;;;;;5096981;28;20440;-84
2022/08/06 06:56:26;;;;;;;3.77;3.47;;;18.30;99.90;;;;;;5096239;28;20480;-85
2022/08/06 06:59:04;;;;;;;4.00;3.60;;;18.40;99.90;;;;;;5096267;28;20805;-86
2022/08/06 07:01:32;;;;;;;2.83;2.70;;;18.40;99.90;;;;;;5096938;28;20434;-84
2022/08/06 07:04:07;;;;;;;2.93;2.73;;;18.30;99.90;;;;;;5095569;28;20919;-85
2022/08/06 07:06:36;;;;;;;4.10;3.67;;;18.30;99.90;;;;;;5097551;28;20905;-88
2022/08/06 07:09:03;;;;;;;4.17;3.87;;;18.30;99.90;;;;;;5096360;28;20460;-86
2022/08/06 07:11:32;;;;;;;4.67;3.00;;;18.40;99.90;;;;;;5096532;28;20490;-87
2022/08/06 07:14:00;;;;;;;3.20;2.90;;;18.60;99.90;;;;;;5095852;28;20454;-86
2022/08/06 07:16:29;;;;;;;4.60;4.07;;;18.70;99.90;;;;;;5097579;28;20994;-85
2022/08/06 07:18:56;;;;;;;3.47;3.27;;;18.80;99.90;;;;;;5096067;28;20450;-85
2022/08/06 07:21:24;;;;;;;2.87;2.77;;;18.90;99.90;;;;;;5096339;28;20452;-87
2022/08/06 07:23:52;;;;;;;3.60;3.20;;;19.00;99.90;;;;;;5096834;28;20962;-85
2022/08/06 07:26:21;;;;;;;3.67;3.30;;;19.10;99.90;;;;;;5097231;28;20475;-86
2022/08/06 07:28:50;;;;;;;3.70;3.40;;;19.30;99.90;;;;;;5096144;28;20456;-86
2022/08/06 07:31:18;;;;;;;3.80;3.37;;;19.10;99.50;;;;;;5095942;28;20485;-87
2022/08/06 07:33:46;;;;;;;3.07;2.90;;;18.80;99.80;;;;;;5096591;28;20461;-86
2022/08/06 07:36:17;;;;;;;3.70;3.50;;;19.10;99.90;;;;;;5098893;28;20561;-87
2022/08/06 07:38:46;;;;;;;4.80;3.23;;;19.00;99.70;;;;;;5099735;28;20455;-86
2022/08/06 07:41:14;;;;;;;3.40;3.10;;;19.10;99.90;;;;;;5097115;28;20483;-86
2022/08/06 07:43:46;;;;;;;3.20;3.00;;;19.30;99.90;;;;;;5099329;28;20814;-84
2022/08/06 07:46:18;;;;;;;3.63;3.37;;;19.40;99.90;;;;;;5100341;28;20480;-84
2022/08/06 07:48:48;;;;;;;3.67;3.43;;;19.40;99.90;;;;;;5098674;28;20459;-83
2022/08/06 07:51:16;;;;;;;3.93;3.70;;;19.50;99.50;;;;;;5098461;28;20490;-83
2022/08/06 07:53:46;;;;;;;7.67;4.20;;;19.30;99.40;;;;;;5097629;28;20453;-85
2022/08/06 07:56:13;;;;;;;3.20;3.00;;;19.20;99.30;;;;;;5097439;28;20474;-85
2022/08/06 07:58:40;;;;;;;3.50;3.30;;;19.20;99.70;;;;;;5098373;28;20844;-84
2022/08/06 08:01:08;;;;;;;2.83;2.63;;;19.30;99.80;;;;;;5100663;28;20453;-86
2022/08/06 08:06:29;;;;;;;4.23;3.93;;;19.80;99.60;;;;;;5099106;28;20457;-87
2022/08/06 08:09:01;;;;;;;3.47;3.17;;;20.10;98.40;;;;;;5097451;28;20459;-84
2022/08/06 08:11:29;;;;;;;3.67;3.17;;;20.30;99.00;;;;;;5097343;28;20920;-84
2022/08/06 08:13:58;;;;;;;3.40;3.20;;;20.50;98.30;;;;;;5096646;28;20811;-85
2022/08/06 08:16:29;;;;;;;3.27;2.97;;;20.70;98.20;;;;;;5096654;28;20600;-85
2022/08/06 08:18:57;;;;;;;3.90;3.50;;;20.90;98.00;;;;;;5097845;28;20453;-85
2022/08/06 08:21:24;;;;;;;4.30;3.60;;;21.20;97.10;;;;;;5097539;28;20448;-83
2022/08/06 08:23:52;;;;;;;6.27;3.33;;;21.50;96.20;;;;;;5098505;28;20447;-83
2022/08/06 08:26:20;;;;;;;3.40;3.17;;;21.60;96.50;;;;;;5098813;28;20468;-84
2022/08/06 08:28:47;;;;;;;3.20;3.00;;;21.80;95.40;;;;;;5100183;28;20449;-85
2022/08/06 08:31:14;;;;;;;3.73;3.53;;;21.90;94.70;;;;;;5103243;28;20864;-85
2022/08/06 08:33:41;;;;;;;3.87;3.50;;;21.60;94.10;;;;;;5099923;28;20509;-83
2022/08/06 08:36:09;;;;;;;3.07;2.90;;;21.70;95.10;;;;;;5099125;28;20467;-86
2022/08/06 08:38:36;;;;;;;7.53;4.10;;;21.90;94.70;;;;;;5099171;28;20465;-85
2022/08/06 08:41:09;;;;;;;3.73;3.53;;;21.60;94.10;;;;;;5098093;28;20454;-80
2022/08/06 08:43:44;;;;;;;3.80;3.40;;;21.80;94.10;;;;;;5096372;28;20460;-80
2022/08/06 08:46:12;;;;;;;3.30;3.10;;;21.60;93.80;;;;;;5093709;28;20818;-80
2022/08/06 08:48:39;;;;;;;2.97;2.77;;;21.50;94.00;;;;;;5095775;28;20980;-80
2022/08/06 08:51:08;;;;;;;3.83;3.43;;;21.40;94.40;;;;;;5087027;28;20455;-80
2022/08/06 08:53:38;;;;;;;3.60;3.40;;;21.20;94.20;;;;;;5096567;28;20525;-80
2022/08/06 08:56:07;;;;;;;4.00;3.70;;;21.20;94.30;;;;;;5096210;28;20479;-80
2022/08/06 08:58:36;;;;;;;3.40;3.10;;;21.20;94.50;;;;;;5097006;28;20801;-80
2022/08/06 09:01:08;;;;;;;3.47;3.20;;;21.10;93.80;;;;;;5095236;28;20473;-78
2022/08/06 09:03:36;;;;;;;3.00;2.90;;;21.10;93.50;;;;;;5095495;28;20937;-78
2022/08/06 09:06:04;;;;;;;3.63;3.43;;;20.90;93.80;;;;;;5093660;28;20470;-78
2022/08/06 09:08:32;;;;;;;3.40;3.20;;;21.00;94.00;;;;;;5096103;28;20444;-80
2022/08/06 09:10:59;;;;;;;3.73;2.70;;;21.20;94.10;;;;;;5095049;28;20489;-76
2022/08/06 09:13:26;;;;;;;3.37;3.17;;;21.40;93.70;;;;;;5093987;28;20453;-76
2022/08/06 09:15:53;;;;;;;3.47;3.20;;;21.50;93.50;;;;;;5091182;28;20472;-76
2022/08/06 09:18:22;;;;;;;3.40;3.20;;;21.70;93.40;;;;;;5092666;28;20459;-77
2022/08/06 09:20:49;;;;;;;3.03;2.73;;;21.40;92.40;;;;;;5094092;28;20452;-76
2022/08/06 09:23:16;;;;;;;4.03;3.70;;;21.50;93.10;;;;;;5092737;28;20529;-76
2022/08/06 09:25:45;;;;;;;4.43;4.03;;;21.60;92.60;;;;;;5091942;28;20506;-77
2022/08/06 09:28:27;;;;;;;4.13;3.73;;;21.70;93.00;;;;;;5094235;28;20484;-76
2022/08/06 09:30:58;;;;;;;3.70;3.30;;;22.00;92.90;;;;;;5094990;28;20457;-76
2022/08/06 09:33:27;;;;;;;3.40;3.00;;;22.10;92.10;;;;;;5092733;28;20517;-76
2022/08/06 09:36:02;;;;;;;2.87;2.60;;;22.20;91.60;;;;;;5095590;28;20495;-76
2022/08/06 09:38:29;;;;;;;3.30;3.00;;;22.40;91.20;;;;;;5095661;28;20472;-76
2022/08/06 09:41:07;;;;;;;3.53;2.90;;;22.40;90.70;;;;;;5096214;28;20869;-76
2022/08/06 09:43:35;;;;;;;2.97;2.77;;;22.60;91.00;;;;;;5095379;28;20452;-75
2022/08/06 09:46:02;;;;;;;4.57;3.47;;;22.80;91.10;;;;;;5094746;28;20463;-76
2022/08/06 09:48:30;;;;;;;6.37;3.57;;;23.00;90.40;;;;;;5095856;28;20462;-76
2022/08/06 09:50:57;;;;;;;2.37;2.27;;;23.20;89.60;;;;;;5096252;28;20455;-76
2022/08/06 09:53:25;;;;;;;6.30;2.97;;;23.40;90.90;;;;;;5095777;28;20486;-76
2022/08/06 09:55:52;;;;;;;5.00;3.43;;;23.70;89.00;;;;;;5096703;28;20987;-76
2022/08/06 09:58:31;;;;;;;2.77;2.67;;;23.90;87.20;;;;;;5096321;28;20447;-76
2022/08/06 10:01:11;;;;;;;3.07;2.87;;;23.90;83.60;;;;;;5095967;28;20846;-76
2022/08/06 10:03:41;;;;;;;3.10;2.87;;;23.80;84.40;;;;;;5095765;28;20450;-76
2022/08/06 10:06:09;;;;;;;3.80;3.50;;;23.60;84.10;;;;;;5094971;28;20471;-76
2022/08/06 10:08:36;;;;;;;3.70;2.57;;;23.70;82.50;;;;;;5095579;28;20455;-76
2022/08/06 10:11:03;;;;;;;3.30;3.03;;;23.80;83.70;;;;;;5095487;28;20447;-76
2022/08/06 10:13:31;;;;;;;2.60;2.40;;;24.10;83.40;;;;;;5096150;28;20482;-77
2022/08/06 10:16:01;;;;;;;3.53;3.27;;;24.30;83.60;;;;;;5095544;28;20553;-76
2022/08/06 10:18:41;;;;;;;3.57;3.27;;;24.40;82.00;;;;;;5097395;28;20936;-76
2022/08/06 10:21:13;;;;;;;3.40;3.10;;;24.50;80.40;;;;;;5098687;28;20843;-76
2022/08/06 10:23:42;;;;;;;3.60;3.40;;;24.30;80.50;;;;;;5098466;28;20452;-78
2022/08/06 10:26:11;;;;;;;4.47;4.17;;;23.70;80.30;;;;;;5098498;28;20467;-78
2022/08/06 10:28:40;;;;;;;3.30;3.10;;;23.40;83.00;;;;;;5098027;28;20447;-78
2022/08/06 10:31:09;;;;;;;3.17;2.97;;;23.80;83.60;;;;;;5097726;28;20822;-78
2022/08/06 10:33:49;;;;;;;3.40;3.10;;;24.00;81.70;;;;;;5097464;28;20486;-78
2022/08/06 10:36:19;;;;;;;2.80;2.60;;;24.30;82.70;;;;;;5097349;28;20478;-78
2022/08/06 10:38:49;;;;;;;3.30;3.07;;;24.60;79.70;;;;;;5096687;28;20447;-79
2022/08/06 10:41:18;;;;;;;3.43;3.23;;;24.80;77.90;;;;;;5098475;28;20463;-79
2022/08/06 10:43:45;;;;;;;3.13;2.83;;;24.60;75.90;;;;;;5098116;28;21145;-79
2022/08/06 10:46:15;;;;;;;2.90;2.70;;;24.70;75.70;;;;;;5098077;28;20473;-81
2022/08/06 10:48:45;;;;;;;3.27;3.03;;;24.70;77.10;;;;;;5097245;28;20460;-79
2022/08/06 10:51:13;;;;;;;2.50;2.30;;;24.80;76.60;;;;;;5097772;28;20460;-79
2022/08/06 10:53:41;;;;;;;2.87;2.77;;;25.00;78.60;;;;;;5097110;28;20522;-79
2022/08/06 10:56:11;;;;;;;3.40;2.93;;;25.20;76.20;;;;;;5097116;28;20474;-78
2022/08/06 10:58:40;;;;;;;4.33;4.00;;;24.70;74.80;;;;;;5097125;28;20547;-78
2022/08/06 11:01:09;;;;;;;2.93;2.73;;;24.50;75.10;;;;;;5096742;28;20454;-79
2022/08/06 11:03:47;;;;;;;2.80;2.60;;;24.70;76.00;;;;;;5096939;28;20448;-79
2022/08/06 11:06:32;;;;;;;3.20;3.00;;;24.30;74.30;;;;;;5095841;28;20466;-78
2022/08/06 11:09:18;;;;;;;2.90;2.80;;;24.20;75.50;;;;;;5096806;28;20461;-79
2022/08/06 11:12:08;;;;;;;2.77;2.57;;;24.10;76.20;;;;;;5096813;28;20442;-78
2022/08/06 11:14:37;;;;;;;3.40;3.10;;;24.50;78.30;;;;;;5095998;28;20458;-80
2022/08/06 11:17:04;;;;;;;3.53;3.27;;;24.80;77.40;;;;;;5096439;28;20474;-79
2022/08/06 11:19:56;;;;;;;2.60;2.50;;;25.10;75.10;;;;;;5098544;28;20448;-84
2022/08/06 11:22:39;;;;;;;3.60;2.43;;;25.70;75.90;;;;;;5110544;28;20439;-85
2022/08/06 11:25:09;;;;;;;3.73;3.30;;;26.50;72.90;;;;;;5110007;28;20984;-84
2022/08/06 11:28:34;;;;;;;3.70;3.43;;;26.60;66.20;;;;;;5104356;28;20449;-85
2022/08/06 11:31:20;;;;;;;2.77;2.57;;;26.60;67.00;;;;;;5105003;28;20483;-85
2022/08/06 11:38:12;;;;;;;3.27;2.97;;;27.60;66.40;;;;;;5044230;28;20865;-85
2022/08/06 11:44:53;;;;;;;3.57;3.27;;;27.60;65.60;;;;;;5075107;28;20532;-85
2022/08/06 11:51:47;;;;;;;3.17;2.87;;;27.30;62.60;;;;;;5022196;28;20506;-85
2022/08/06 11:58:06;;;;;;;2.70;2.50;;;29.00;62.70;;;;;;4959272;29;20480;-85
2022/08/06 12:01:30;;;;;;;3.47;2.70;;;30.10;60.40;;;;;;5055368;28;20459;-86
2022/08/06 12:04:44;;;;;;;;;;;;;;;;;;;;;
2022/08/06 12:07:54;;;;;;;3.43;3.23;;;31.40;54.20;;;;;;5030796;28;20450;-86
2022/08/06 12:10:32;;;;;;;3.20;3.10;;;30.80;53.00;;;;;;5083640;28;20504;-86
2022/08/06 12:13:06;;;;;;;3.03;2.83;;;30.50;52.60;;;;;;5084072;28;20467;-85
2022/08/06 12:15:40;;;;;;;2.90;2.80;;;29.80;52.60;;;;;;5084523;28;20551;-85
2022/08/06 12:18:12;;;;;;;3.40;3.20;;;29.10;53.50;;;;;;5085297;28;20545;-85
2022/08/06 12:20:42;;;;;;;3.60;2.30;;;29.40;54.90;;;;;;5085353;28;20448;-85
2022/08/06 12:23:14;;;;;;;2.73;2.63;;;29.20;55.20;;;;;;5084673;28;20504;-85
2022/08/06 12:25:51;;;;;;;2.90;2.70;;;29.20;55.00;;;;;;5085337;28;21026;-85
2022/08/06 12:28:20;;;;;;;3.00;2.90;;;28.80;55.00;;;;;;5086733;28;20455;-85
2022/08/06 12:30:52;;;;;;;2.87;2.67;;;29.00;56.30;;;;;;5085746;28;20462;-85
2022/08/06 12:33:25;;;;;;;3.07;2.80;;;29.10;54.00;;;;;;5085884;28;20438;-85
2022/08/06 12:36:11;;;;;;;3.23;2.67;;;28.90;55.40;;;;;;5085352;28;20488;-86
2022/08/06 12:38:57;;;;;;;2.57;2.37;;;29.20;54.70;;;;;;5085398;28;20857;-85
2022/08/06 12:41:41;;;;;;;3.67;2.80;;;29.50;53.90;;;;;;5085013;28;20451;-85
2022/08/06 12:44:12;;;;;;;3.13;2.80;;;29.50;54.70;;;;;;5084544;28;20552;-85
2022/08/06 12:46:40;;;;;;;3.67;3.00;;;29.00;52.40;;;;;;5085942;28;20473;-86
2022/08/06 12:49:08;;;;;;;3.73;3.20;;;28.90;53.30;;;;;;5086450;28;20505;-85
2022/08/06 12:51:39;;;;;;;2.77;2.67;;;28.90;53.30;;;;;;5085624;28;20874;-85
2022/08/06 12:54:12;;;;;;;3.23;3.03;;;28.60;54.10;;;;;;5084781;28;20481;-85
2022/08/06 12:56:47;;;;;;;4.30;3.07;;;28.50;55.00;;;;;;5086162;28;20847;-85
2022/08/06 12:59:25;;;;;;;3.20;3.00;;;28.70;55.40;;;;;;5086711;28;20451;-85
2022/08/06 13:02:05;;;;;;;2.53;2.43;;;29.10;55.50;;;;;;5089537;28;20500;-85
2022/08/06 14:52:30;;;;;;;2.63;2.43;;;33.10;40.00;;;;;;5144942;23;20487;-87
2022/08/06 14:54:59;;;;;;;1.93;1.83;;;32.90;39.30;;;;;;5138402;27;20872;-85
2022/08/06 14:57:26;;;;;;;2.07;1.97;;;32.90;40.10;;;;;;5135307;27;20823;-87
2022/08/06 14:59:53;;;;;;;3.30;2.00;;;33.80;39.40;;;;;;5135892;27;20451;-86
2022/08/06 15:02:20;;;;;;;2.13;2.03;;;34.70;37.90;;;;;;5134203;27;20961;-84
2022/08/06 15:04:47;;;;;;;2.73;2.53;;;35.10;37.20;;;;;;5134589;27;21028;-85
2022/08/06 15:07:13;;;;;;;1.83;1.73;;;35.40;36.50;;;;;;5134839;27;20949;-84
2022/08/06 15:09:41;;;;;;;2.30;2.17;;;36.30;37.00;;;;;;5135125;27;20453;-86
2022/08/06 15:12:09;;;;;;;3.70;2.30;;;36.90;34.40;;;;;;5134820;27;20453;-85
2022/08/06 15:14:35;;;;;;;2.20;2.10;;;36.10;33.70;;;;;;5133754;27;20540;-86
2022/08/06 15:17:02;;;;;;;2.43;2.23;;;34.90;34.60;;;;;;5135002;27;20456;-85
2022/08/06 15:19:39;;;;;;;2.43;2.07;;;34.70;35.70;;;;;;5134508;27;20453;-86
2022/08/06 15:22:06;;;;;;;2.13;2.03;;;35.10;37.10;;;;;;5134553;27;20453;-85
2022/08/06 15:24:34;;;;;;;2.30;2.20;;;34.90;34.70;;;;;;5133665;27;20480;-85
2022/08/06 15:27:12;;;;;;;1.93;1.83;;;34.40;35.40;;;;;;5134503;27;20510;-85
2022/08/06 15:29:39;;;;;;;1.90;1.80;;;34.50;35.80;;;;;;5134117;27;20796;-86
2022/08/06 15:32:05;;;;;;;2.07;1.97;;;35.20;36.00;;;;;;5134567;27;20453;-86
2022/08/06 15:34:32;;;;;;;3.00;1.60;;;36.30;35.30;;;;;;5133937;27;20826;-85
2022/08/06 15:36:59;;;;;;;3.90;2.17;;;36.50;33.30;;;;;;5134778;27;20455;-85
2022/08/06 15:39:25;;;;;;;2.30;1.93;;;37.30;33.60;;;;;;5134602;27;20451;-86
2022/08/06 15:41:52;;;;;;;1.70;1.50;;;38.10;32.60;;;;;;5134496;27;20444;-86
2022/08/06 15:44:25;;;;;;;2.13;2.00;;;39.00;31.40;;;;;;5133841;27;20481;-86
2022/08/06 15:46:52;;;;;;;2.17;1.97;;;40.00;30.20;;;;;;5134339;27;20444;-86
2022/08/06 15:49:18;;;;;;;1.63;1.53;;;40.30;29.60;;;;;;5133689;27;20498;-85
2022/08/06 15:51:45;;;;;;;2.10;2.00;;;40.20;29.00;;;;;;5133935;27;20452;-85
2022/08/06 15:54:12;;;;;;;1.80;1.70;;;39.90;29.20;;;;;;5133417;27;20456;-85
2022/08/06 15:56:41;;;;;;;1.47;1.37;;;39.30;29.30;;;;;;5141815;27;20457;-85
2022/08/06 15:59:08;;;;;;;2.07;1.50;;;38.40;29.40;;;;;;5147317;27;20471;-85
2022/08/06 16:01:36;;;;;;;2.00;1.60;;;37.30;30.80;;;;;;5150449;27;20451;-86
2022/08/06 16:04:04;;;;;;;1.80;1.70;;;37.20;31.70;;;;;;5141167;27;20483;-85
2022/08/06 16:06:30;;;;;;;2.60;2.40;;;37.60;32.10;;;;;;5134476;27;20472;-85
2022/08/06 16:08:57;;;;;;;2.63;1.73;;;37.80;31.50;;;;;;5133768;27;20448;-84
2022/08/06 16:11:24;;;;;;;1.50;1.40;;;37.70;31.00;;;;;;5133810;27;20460;-84
2022/08/06 16:13:51;;;;;;;1.87;1.77;;;37.60;31.30;;;;;;5133043;27;20452;-84
2022/08/06 16:16:19;;;;;;;2.03;1.93;;;37.10;31.40;;;;;;5133769;27;20475;-84
2022/08/06 16:18:47;;;;;;;2.27;2.13;;;36.60;31.30;;;;;;5133578;27;20485;-84
2022/08/06 16:21:14;;;;;;;1.83;1.50;;;36.40;32.90;;;;;;5133516;27;20444;-85
2022/08/06 16:23:40;;;;;;;2.80;1.97;;;35.80;31.40;;;;;;5133198;27;20847;-84
2022/08/06 16:26:07;;;;;;;2.53;2.10;;;34.60;32.90;;;;;;5137102;27;20864;-84
2022/08/06 16:28:35;;;;;;;2.10;2.00;;;35.20;33.90;;;;;;5143942;27;20453;-84
2022/08/06 16:31:03;;;;;;;1.73;1.63;;;34.20;32.60;;;;;;5145942;27;20441;-83
2022/08/06 16:33:30;;;;;;;1.73;1.63;;;34.30;33.70;;;;;;5141046;27;20449;-84
2022/08/06 16:35:58;;;;;;;1.90;1.80;;;34.60;33.50;;;;;;5146245;27;20472;-84
2022/08/06 16:38:24;;;;;;;1.60;1.50;;;35.20;34.30;;;;;;5150032;27;20436;-84
2022/08/06 16:40:51;;;;;;;1.43;1.30;;;35.90;32.70;;;;;;5148534;27;20516;-85
2022/08/06 16:43:18;;;;;;;1.70;1.60;;;36.70;32.70;;;;;;5148951;27;20477;-84
2022/08/06 16:45:45;;;;;;;2.03;1.60;;;36.90;31.30;;;;;;5150105;27;20483;-84
2022/08/06 16:48:12;;;;;;;2.20;2.00;;;36.80;31.70;;;;;;5151523;27;20972;-84
2022/08/06 16:50:38;;;;;;;1.70;1.60;;;36.30;31.30;;;;;;5151120;27;20437;-84
2022/08/06 16:53:07;;;;;;;3.10;1.63;;;36.00;32.20;;;;;;5148759;27;20461;-83
2022/08/06 16:55:34;;;;;;;2.20;2.00;;;35.80;30.90;;;;;;5148878;27;21061;-85
2022/08/06 16:58:06;;;;;;;2.50;1.60;;;35.50;32.20;;;;;;5150590;27;20467;-85
2022/08/06 17:00:33;;;;;;;1.93;1.73;;;35.80;31.70;;;;;;5150881;27;20452;-84
2022/08/06 17:03:00;;;;;;;1.90;1.80;;;36.30;31.90;;;;;;5149799;27;20444;-84
2022/08/06 17:05:27;;;;;;;2.00;1.80;;;36.70;31.90;;;;;;5150785;27;20461;-84
2022/08/06 17:07:54;;;;;;;2.00;1.90;;;36.70;30.20;;;;;;5149931;27;20449;-84
2022/08/06 17:10:22;;;;;;;1.30;1.20;;;35.60;31.30;;;;;;5150978;27;20449;-84
2022/08/06 17:12:49;;;;;;;2.90;1.60;;;34.70;31.60;;;;;;5150806;27;20461;-85
2022/08/06 17:15:17;;;;;;;2.10;2.00;;;34.20;32.40;;;;;;5130658;28;20449;-84
2022/08/06 17:17:44;;;;;;;1.70;1.60;;;33.80;33.20;;;;;;5131183;28;20449;-84
2022/08/06 17:20:11;;;;;;;1.97;1.87;;;33.80;33.30;;;;;;5150760;28;20445;-84
2022/08/06 17:22:38;;;;;;;1.30;1.30;;;32.90;35.10;;;;;;5151891;28;20451;-84
2022/08/06 17:25:07;;;;;;;1.97;1.87;;;33.40;35.20;;;;;;5151164;28;20485;-85
2022/08/06 17:27:36;;;;;;;2.20;2.10;;;34.00;35.00;;;;;;5151659;28;20471;-84
2022/08/06 17:30:08;;;;;;;1.90;1.80;;;33.90;33.20;;;;;;5152244;28;20459;-84
2022/08/06 17:32:35;;;;;;;2.00;1.50;;;34.00;34.70;;;;;;5151917;28;20480;-85
2022/08/06 17:35:03;;;;;;;1.80;1.70;;;34.10;34.10;;;;;;5150860;28;20483;-84
2022/08/06 17:37:30;;;;;;;2.60;2.00;;;33.40;34.10;;;;;;5152226;28;20441;-85
2022/08/06 17:39:57;;;;;;;2.13;1.93;;;32.60;34.50;;;;;;5151471;28;20444;-84
2022/08/06 17:42:23;;;;;;;2.77;2.00;;;31.50;35.90;;;;;;5150772;28;20457;-86
2022/08/06 17:44:52;;;;;;;2.40;2.30;;;31.20;36.80;;;;;;5148956;28;20488;-84
2022/08/06 17:47:18;;;;;;;2.67;2.47;;;31.10;38.10;;;;;;5134525;28;20454;-85
2022/08/06 17:49:46;;;;;;;2.90;2.37;;;30.60;37.90;;;;;;5153128;27;20477;-85
2022/08/06 17:52:13;;;;;;;3.40;2.07;;;30.60;38.30;;;;;;5154309;27;20478;-85
2022/08/06 17:54:40;;;;;;;2.83;2.33;;;30.60;38.20;;;;;;5153556;27;20443;-84
2022/08/06 17:57:06;;;;;;;1.90;1.80;;;29.90;38.20;;;;;;5150534;27;20443;-84
2022/08/06 17:59:33;;;;;;;1.70;1.60;;;29.70;38.90;;;;;;5150653;27;20447;-83
2022/08/06 18:02:01;;;;;;;1.97;1.73;;;29.60;38.40;;;;;;5152647;27;20485;-85
2022/08/06 18:04:28;;;;;;;1.90;1.80;;;29.40;37.70;;;;;;5148324;27;20481;-85
2022/08/06 18:06:55;;;;;;;1.50;1.40;;;29.20;38.10;;;;;;5148832;27;20452;-84
2022/08/06 18:09:21;;;;;;;2.93;1.90;;;29.00;38.10;;;;;;5151637;27;20445;-84
2022/08/06 18:11:48;;;;;;;3.43;1.70;;;29.00;37.60;;;;;;5150990;27;20447;-84
2022/08/06 18:14:21;;;;;;;88.27;82.17;;;29.10;37.40;;;;;;5142603;27;20437;-85
2022/08/06 18:16:50;;;;;;;31.83;29.60;;;29.00;37.00;;;;;;5137554;27;20483;-85
2022/08/06 18:19:18;;;;;;;22.90;21.33;;;28.70;36.00;;;;;;5137511;27;20452;-85
2022/08/06 18:21:45;;;;;;;7.70;7.17;;;28.90;36.30;;;;;;5138123;27;20825;-84
2022/08/06 18:24:14;;;;;;;9.33;8.83;;;29.00;35.70;;;;;;5137802;27;20492;-84
2022/08/06 18:26:41;;;;;;;5.07;4.67;;;28.70;35.80;;;;;;5137796;27;20518;-85
2022/08/06 18:29:08;;;;;;;5.07;4.70;;;28.60;35.60;;;;;;5138628;27;20467;-85
2022/08/06 18:31:36;;;;;;;3.53;3.23;;;28.30;35.80;;;;;;5144899;27;20459;-85
2022/08/06 18:34:03;;;;;;;3.60;3.33;;;28.20;36.00;;;;;;5153486;27;20438;-84